sensor_id;sensor_type;location;lat;lon;timestamp;P1;durP1;ratioP1;P2;durP2;ratioP2
5831;SDS011;50943;51.448;7.646;2022-07-29T00:02:18;4.10;;;1.40;;
5831;SDS011;50943;51.448;7.646;2022-07-29T00:04:44;5.70;;;1.70;;
5831;SDS011;50943;51.448;7.646;2022-07-29T00:07:12;6.17;;;1.60;;
5831;SDS011;50943;51.448;7.646;2022-07-29T00:09:39;4.90;;;1.43;;
5831;SDS011;50943;51.448;7.646;2022-07-29T00:12:06;5.00;;;1.60;;
5831;SDS011;50943;51.448;7.646;2022-07-29T00:14:33;7.53;;;1.53;;
5831;SDS011;50943;51.448;7.646;2022-07-29T00:16:59;5.33;;;1.87;;
5831;SDS011;50943;51.448;7.646;2022-07-29T00:19:26;5.77;;;1.70;;
5831;SDS011;50943;51.448;7.646;2022-07-29T00:21:53;5.63;;;2.03;;
5831;SDS011;50943;51.448;7.646;2022-07-29T00:24:21;9.47;;;1.90;;
5831;SDS011;50943;51.448;7.646;2022-07-29T00:26:47;3.80;;;1.63;;
5831;SDS011;50943;51.448;7.646;2022-07-29T00:29:14;7.63;;;1.93;;
5831;SDS011;50943;51.448;7.646;2022-07-29T00:31:40;4.20;;;1.50;;
5831;SDS011;50943;51.448;7.646;2022-07-29T00:34:07;4.73;;;1.80;;
5831;SDS011;50943;51.448;7.646;2022-07-29T00:36:53;4.40;;;1.60;;
5831;SDS011;50943;51.448;7.646;2022-07-29T00:39:20;5.53;;;1.40;;
5831;SDS011;50943;51.448;7.646;2022-07-29T00:41:47;3.50;;;1.50;;
5831;SDS011;50943;51.448;7.646;2022-07-29T00:44:14;5.43;;;1.80;;
5831;SDS011;50943;51.448;7.646;2022-07-29T00:46:41;7.63;;;1.57;;
5831;SDS011;50943;51.448;7.646;2022-07-29T00:49:07;6.17;;;1.70;;
5831;SDS011;50943;51.448;7.646;2022-07-29T00:51:34;7.77;;;1.73;;
5831;SDS011;50943;51.448;7.646;2022-07-29T00:54:03;4.70;;;1.57;;
5831;SDS011;50943;51.448;7.646;2022-07-29T00:56:32;5.77;;;1.53;;
5831;SDS011;50943;51.448;7.646;2022-07-29T00:58:59;5.20;;;2.17;;
5831;SDS011;50943;51.448;7.646;2022-07-29T01:01:26;4.50;;;1.70;;
5831;SDS011;50943;51.448;7.646;2022-07-29T01:03:53;12.83;;;2.03;;
5831;SDS011;50943;51.448;7.646;2022-07-29T01:06:20;6.47;;;1.80;;
5831;SDS011;50943;51.448;7.646;2022-07-29T01:08:47;10.23;;;2.07;;
5831;SDS011;50943;51.448;7.646;2022-07-29T01:11:14;5.07;;;1.73;;
5831;SDS011;50943;51.448;7.646;2022-07-29T01:13:42;3.50;;;1.40;;
5831;SDS011;50943;51.448;7.646;2022-07-29T01:16:10;2.77;;;1.50;;
5831;SDS011;50943;51.448;7.646;2022-07-29T01:18:41;13.27;;;1.80;;
5831;SDS011;50943;51.448;7.646;2022-07-29T01:21:18;18.90;;;1.87;;
5831;SDS011;50943;51.448;7.646;2022-07-29T01:26:42;4.50;;;1.60;;
5831;SDS011;50943;51.448;7.646;2022-07-29T01:29:21;8.00;;;1.90;;
5831;SDS011;50943;51.448;7.646;2022-07-29T01:31:54;6.20;;;1.90;;
5831;SDS011;50943;51.448;7.646;2022-07-29T01:34:23;4.60;;;1.80;;
5831;SDS011;50943;51.448;7.646;2022-07-29T01:36:54;5.67;;;2.10;;
5831;SDS011;50943;51.448;7.646;2022-07-29T01:39:26;9.40;;;2.03;;
5831;SDS011;50943;51.448;7.646;2022-07-29T01:41:55;7.60;;;2.27;;
5831;SDS011;50943;51.448;7.646;2022-07-29T01:44:27;6.10;;;1.87;;
5831;SDS011;50943;51.448;7.646;2022-07-29T01:46:58;7.83;;;1.80;;
5831;SDS011;50943;51.448;7.646;2022-07-29T01:49:30;5.97;;;1.57;;
5831;SDS011;50943;51.448;7.646;2022-07-29T01:51:59;7.63;;;1.70;;
5831;SDS011;50943;51.448;7.646;2022-07-29T01:54:29;9.67;;;2.70;;
5831;SDS011;50943;51.448;7.646;2022-07-29T01:56:57;7.10;;;2.00;;
5831;SDS011;50943;51.448;7.646;2022-07-29T01:59:26;8.63;;;2.40;;
5831;SDS011;50943;51.448;7.646;2022-07-29T02:01:54;19.53;;;2.30;;
5831;SDS011;50943;51.448;7.646;2022-07-29T02:04:21;5.50;;;2.27;;
5831;SDS011;50943;51.448;7.646;2022-07-29T02:06:49;6.67;;;1.80;;
5831;SDS011;50943;51.448;7.646;2022-07-29T02:09:17;6.50;;;2.20;;
5831;SDS011;50943;51.448;7.646;2022-07-29T02:11:47;8.77;;;2.50;;
5831;SDS011;50943;51.448;7.646;2022-07-29T02:14:14;13.37;;;2.27;;
5831;SDS011;50943;51.448;7.646;2022-07-29T02:16:43;6.00;;;1.80;;
5831;SDS011;50943;51.448;7.646;2022-07-29T02:19:10;7.70;;;1.60;;
5831;SDS011;50943;51.448;7.646;2022-07-29T02:21:38;7.50;;;2.30;;
5831;SDS011;50943;51.448;7.646;2022-07-29T02:24:07;7.90;;;1.80;;
5831;SDS011;50943;51.448;7.646;2022-07-29T02:26:34;7.83;;;2.03;;
5831;SDS011;50943;51.448;7.646;2022-07-29T02:29:01;8.63;;;1.83;;
5831;SDS011;50943;51.448;7.646;2022-07-29T02:31:29;5.00;;;1.90;;
5831;SDS011;50943;51.448;7.646;2022-07-29T02:34:00;8.40;;;1.83;;
5831;SDS011;50943;51.448;7.646;2022-07-29T02:36:28;3.93;;;2.10;;
5831;SDS011;50943;51.448;7.646;2022-07-29T02:38:56;8.53;;;1.90;;
5831;SDS011;50943;51.448;7.646;2022-07-29T02:41:26;7.83;;;2.37;;
5831;SDS011;50943;51.448;7.646;2022-07-29T02:43:55;11.57;;;2.23;;
5831;SDS011;50943;51.448;7.646;2022-07-29T02:46:26;9.43;;;2.40;;
5831;SDS011;50943;51.448;7.646;2022-07-29T02:48:57;6.03;;;2.13;;
5831;SDS011;50943;51.448;7.646;2022-07-29T02:51:29;6.90;;;2.33;;
5831;SDS011;50943;51.448;7.646;2022-07-29T02:54:01;7.90;;;2.40;;
5831;SDS011;50943;51.448;7.646;2022-07-29T02:56:29;4.30;;;2.13;;
5831;SDS011;50943;51.448;7.646;2022-07-29T02:59:01;8.70;;;2.63;;
5831;SDS011;50943;51.448;7.646;2022-07-29T03:01:30;7.10;;;2.70;;
5831;SDS011;50943;51.448;7.646;2022-07-29T03:03:59;6.43;;;2.43;;
5831;SDS011;50943;51.448;7.646;2022-07-29T03:06:30;5.00;;;2.10;;
5831;SDS011;50943;51.448;7.646;2022-07-29T03:08:57;6.30;;;2.20;;
5831;SDS011;50943;51.448;7.646;2022-07-29T03:11:25;7.20;;;2.57;;
5831;SDS011;50943;51.448;7.646;2022-07-29T03:13:52;6.70;;;2.33;;
5831;SDS011;50943;51.448;7.646;2022-07-29T03:16:19;5.67;;;2.33;;
5831;SDS011;50943;51.448;7.646;2022-07-29T03:18:47;8.83;;;2.53;;
5831;SDS011;50943;51.448;7.646;2022-07-29T03:21:15;12.20;;;2.43;;
5831;SDS011;50943;51.448;7.646;2022-07-29T03:23:43;6.90;;;2.43;;
5831;SDS011;50943;51.448;7.646;2022-07-29T03:26:10;6.37;;;2.37;;
5831;SDS011;50943;51.448;7.646;2022-07-29T03:28:37;6.53;;;2.40;;
5831;SDS011;50943;51.448;7.646;2022-07-29T03:31:03;6.13;;;2.77;;
5831;SDS011;50943;51.448;7.646;2022-07-29T03:33:30;9.07;;;2.10;;
5831;SDS011;50943;51.448;7.646;2022-07-29T03:35:57;4.47;;;2.33;;
5831;SDS011;50943;51.448;7.646;2022-07-29T03:38:26;6.17;;;2.10;;
5831;SDS011;50943;51.448;7.646;2022-07-29T03:40:54;14.23;;;2.40;;
5831;SDS011;50943;51.448;7.646;2022-07-29T03:43:23;6.33;;;2.60;;
5831;SDS011;50943;51.448;7.646;2022-07-29T03:45:52;5.80;;;2.57;;
5831;SDS011;50943;51.448;7.646;2022-07-29T03:48:21;4.43;;;2.13;;
5831;SDS011;50943;51.448;7.646;2022-07-29T03:50:48;7.60;;;2.87;;
5831;SDS011;50943;51.448;7.646;2022-07-29T03:53:16;8.83;;;2.33;;
5831;SDS011;50943;51.448;7.646;2022-07-29T03:55:48;4.90;;;2.03;;
5831;SDS011;50943;51.448;7.646;2022-07-29T03:58:17;5.63;;;2.40;;
5831;SDS011;50943;51.448;7.646;2022-07-29T04:00:44;5.87;;;2.70;;
5831;SDS011;50943;51.448;7.646;2022-07-29T04:03:12;6.67;;;2.40;;
5831;SDS011;50943;51.448;7.646;2022-07-29T04:05:39;5.13;;;2.33;;
5831;SDS011;50943;51.448;7.646;2022-07-29T04:08:05;5.30;;;2.93;;
5831;SDS011;50943;51.448;7.646;2022-07-29T04:10:32;7.00;;;2.77;;
5831;SDS011;50943;51.448;7.646;2022-07-29T04:13:00;4.37;;;2.60;;
5831;SDS011;50943;51.448;7.646;2022-07-29T04:15:27;7.00;;;2.80;;
5831;SDS011;50943;51.448;7.646;2022-07-29T04:17:54;8.10;;;3.00;;
5831;SDS011;50943;51.448;7.646;2022-07-29T04:20:20;7.33;;;3.00;;
5831;SDS011;50943;51.448;7.646;2022-07-29T04:22:47;7.80;;;2.60;;
5831;SDS011;50943;51.448;7.646;2022-07-29T04:25:13;4.07;;;2.60;;
5831;SDS011;50943;51.448;7.646;2022-07-29T04:27:40;8.57;;;2.60;;
5831;SDS011;50943;51.448;7.646;2022-07-29T04:30:26;6.10;;;2.53;;
5831;SDS011;50943;51.448;7.646;2022-07-29T04:32:53;7.37;;;3.13;;
5831;SDS011;50943;51.448;7.646;2022-07-29T04:35:20;4.80;;;2.40;;
5831;SDS011;50943;51.448;7.646;2022-07-29T04:37:47;7.93;;;2.50;;
5831;SDS011;50943;51.448;7.646;2022-07-29T04:40:13;3.83;;;2.30;;
5831;SDS011;50943;51.448;7.646;2022-07-29T04:42:40;4.13;;;2.40;;
5831;SDS011;50943;51.448;7.646;2022-07-29T04:45:06;8.67;;;2.80;;
5831;SDS011;50943;51.448;7.646;2022-07-29T04:47:35;5.57;;;2.40;;
5831;SDS011;50943;51.448;7.646;2022-07-29T04:50:01;5.90;;;2.10;;
5831;SDS011;50943;51.448;7.646;2022-07-29T04:52:28;7.63;;;2.40;;
5831;SDS011;50943;51.448;7.646;2022-07-29T04:54:55;5.10;;;2.53;;
5831;SDS011;50943;51.448;7.646;2022-07-29T04:57:22;8.53;;;2.77;;
5831;SDS011;50943;51.448;7.646;2022-07-29T04:59:48;9.27;;;3.47;;
5831;SDS011;50943;51.448;7.646;2022-07-29T05:02:15;6.30;;;2.47;;
5831;SDS011;50943;51.448;7.646;2022-07-29T05:04:43;6.20;;;2.47;;
5831;SDS011;50943;51.448;7.646;2022-07-29T05:07:09;12.00;;;3.30;;
5831;SDS011;50943;51.448;7.646;2022-07-29T05:09:36;6.27;;;2.27;;
5831;SDS011;50943;51.448;7.646;2022-07-29T05:12:03;6.17;;;2.80;;
5831;SDS011;50943;51.448;7.646;2022-07-29T05:14:30;8.63;;;2.00;;
5831;SDS011;50943;51.448;7.646;2022-07-29T05:16:56;5.80;;;2.43;;
5831;SDS011;50943;51.448;7.646;2022-07-29T05:19:23;6.87;;;1.90;;
5831;SDS011;50943;51.448;7.646;2022-07-29T05:21:51;5.27;;;2.47;;
5831;SDS011;50943;51.448;7.646;2022-07-29T05:24:17;13.03;;;2.40;;
5831;SDS011;50943;51.448;7.646;2022-07-29T05:26:44;8.43;;;2.20;;
5831;SDS011;50943;51.448;7.646;2022-07-29T05:29:10;3.33;;;2.10;;
5831;SDS011;50943;51.448;7.646;2022-07-29T05:31:37;6.90;;;2.37;;
5831;SDS011;50943;51.448;7.646;2022-07-29T05:34:04;8.40;;;2.50;;
5831;SDS011;50943;51.448;7.646;2022-07-29T05:36:30;4.00;;;2.10;;
5831;SDS011;50943;51.448;7.646;2022-07-29T05:38:58;5.30;;;1.90;;
5831;SDS011;50943;51.448;7.646;2022-07-29T05:41:25;6.93;;;2.23;;
5831;SDS011;50943;51.448;7.646;2022-07-29T05:43:52;8.73;;;1.77;;
5831;SDS011;50943;51.448;7.646;2022-07-29T05:46:19;7.83;;;1.87;;
5831;SDS011;50943;51.448;7.646;2022-07-29T05:48:46;14.00;;;2.33;;
5831;SDS011;50943;51.448;7.646;2022-07-29T05:51:12;10.80;;;2.10;;
5831;SDS011;50943;51.448;7.646;2022-07-29T05:53:39;10.10;;;2.20;;
5831;SDS011;50943;51.448;7.646;2022-07-29T05:56:07;7.83;;;2.10;;
5831;SDS011;50943;51.448;7.646;2022-07-29T05:58:34;4.07;;;1.90;;
5831;SDS011;50943;51.448;7.646;2022-07-29T06:01:01;9.83;;;1.97;;
5831;SDS011;50943;51.448;7.646;2022-07-29T06:03:28;3.83;;;1.90;;
5831;SDS011;50943;51.448;7.646;2022-07-29T06:05:55;9.07;;;1.90;;
5831;SDS011;50943;51.448;7.646;2022-07-29T06:08:21;5.77;;;1.90;;
5831;SDS011;50943;51.448;7.646;2022-07-29T06:10:48;4.67;;;2.20;;
5831;SDS011;50943;51.448;7.646;2022-07-29T06:13:16;10.23;;;3.00;;
5831;SDS011;50943;51.448;7.646;2022-07-29T06:15:43;7.90;;;2.30;;
5831;SDS011;50943;51.448;7.646;2022-07-29T06:18:09;8.90;;;1.97;;
5831;SDS011;50943;51.448;7.646;2022-07-29T06:20:36;4.07;;;1.63;;
5831;SDS011;50943;51.448;7.646;2022-07-29T06:23:02;6.27;;;2.10;;
5831;SDS011;50943;51.448;7.646;2022-07-29T06:25:29;4.03;;;1.90;;
5831;SDS011;50943;51.448;7.646;2022-07-29T06:27:57;7.17;;;2.10;;
5831;SDS011;50943;51.448;7.646;2022-07-29T06:30:25;10.03;;;2.13;;
5831;SDS011;50943;51.448;7.646;2022-07-29T06:32:53;8.30;;;2.20;;
5831;SDS011;50943;51.448;7.646;2022-07-29T06:35:20;9.83;;;2.10;;
5831;SDS011;50943;51.448;7.646;2022-07-29T06:37:47;7.90;;;1.70;;
5831;SDS011;50943;51.448;7.646;2022-07-29T06:40:13;9.03;;;3.07;;
5831;SDS011;50943;51.448;7.646;2022-07-29T06:42:58;4.43;;;2.00;;
5831;SDS011;50943;51.448;7.646;2022-07-29T06:45:26;7.17;;;1.90;;
5831;SDS011;50943;51.448;7.646;2022-07-29T06:47:53;8.57;;;2.47;;
5831;SDS011;50943;51.448;7.646;2022-07-29T06:50:20;7.10;;;2.00;;
5831;SDS011;50943;51.448;7.646;2022-07-29T06:52:46;6.20;;;1.83;;
5831;SDS011;50943;51.448;7.646;2022-07-29T06:55:13;10.83;;;2.03;;
5831;SDS011;50943;51.448;7.646;2022-07-29T06:57:40;5.27;;;1.63;;
5831;SDS011;50943;51.448;7.646;2022-07-29T07:00:07;5.87;;;2.17;;
5831;SDS011;50943;51.448;7.646;2022-07-29T07:02:36;11.13;;;2.37;;
5831;SDS011;50943;51.448;7.646;2022-07-29T07:05:02;6.70;;;1.93;;
5831;SDS011;50943;51.448;7.646;2022-07-29T07:07:30;22.23;;;2.97;;
5831;SDS011;50943;51.448;7.646;2022-07-29T07:09:57;5.43;;;2.40;;
5831;SDS011;50943;51.448;7.646;2022-07-29T07:12:23;5.50;;;2.00;;
5831;SDS011;50943;51.448;7.646;2022-07-29T07:14:50;10.10;;;2.00;;
5831;SDS011;50943;51.448;7.646;2022-07-29T07:17:17;8.23;;;2.33;;
5831;SDS011;50943;51.448;7.646;2022-07-29T07:19:45;6.70;;;2.10;;
5831;SDS011;50943;51.448;7.646;2022-07-29T07:22:11;12.63;;;2.80;;
5831;SDS011;50943;51.448;7.646;2022-07-29T07:24:38;6.37;;;2.47;;
5831;SDS011;50943;51.448;7.646;2022-07-29T07:27:04;8.83;;;1.90;;
5831;SDS011;50943;51.448;7.646;2022-07-29T07:29:31;5.27;;;2.10;;
5831;SDS011;50943;51.448;7.646;2022-07-29T07:31:57;4.67;;;2.00;;
5831;SDS011;50943;51.448;7.646;2022-07-29T07:34:24;5.47;;;2.17;;
5831;SDS011;50943;51.448;7.646;2022-07-29T07:36:52;4.47;;;2.37;;
5831;SDS011;50943;51.448;7.646;2022-07-29T07:39:18;8.37;;;2.03;;
5831;SDS011;50943;51.448;7.646;2022-07-29T07:41:45;5.30;;;2.30;;
5831;SDS011;50943;51.448;7.646;2022-07-29T07:44:12;11.30;;;2.20;;
5831;SDS011;50943;51.448;7.646;2022-07-29T07:46:38;6.60;;;2.30;;
5831;SDS011;50943;51.448;7.646;2022-07-29T07:49:05;6.80;;;2.03;;
5831;SDS011;50943;51.448;7.646;2022-07-29T07:51:31;6.57;;;1.97;;
5831;SDS011;50943;51.448;7.646;2022-07-29T07:53:59;7.03;;;1.90;;
5831;SDS011;50943;51.448;7.646;2022-07-29T07:56:26;8.87;;;2.20;;
5831;SDS011;50943;51.448;7.646;2022-07-29T07:58:53;7.00;;;1.97;;
5831;SDS011;50943;51.448;7.646;2022-07-29T08:01:20;6.07;;;1.93;;
5831;SDS011;50943;51.448;7.646;2022-07-29T08:03:48;5.50;;;1.70;;
5831;SDS011;50943;51.448;7.646;2022-07-29T08:06:15;8.33;;;1.90;;
5831;SDS011;50943;51.448;7.646;2022-07-29T08:08:42;5.57;;;1.90;;
5831;SDS011;50943;51.448;7.646;2022-07-29T08:11:10;4.80;;;1.90;;
5831;SDS011;50943;51.448;7.646;2022-07-29T08:13:37;8.40;;;2.13;;
5831;SDS011;50943;51.448;7.646;2022-07-29T08:16:04;10.37;;;2.23;;
5831;SDS011;50943;51.448;7.646;2022-07-29T08:18:38;9.50;;;2.40;;
5831;SDS011;50943;51.448;7.646;2022-07-29T08:21:05;5.40;;;2.20;;
5831;SDS011;50943;51.448;7.646;2022-07-29T08:23:32;4.90;;;2.00;;
5831;SDS011;50943;51.448;7.646;2022-07-29T08:26:03;11.03;;;3.10;;
5831;SDS011;50943;51.448;7.646;2022-07-29T08:28:31;6.33;;;1.90;;
5831;SDS011;50943;51.448;7.646;2022-07-29T08:30:58;5.73;;;2.20;;
5831;SDS011;50943;51.448;7.646;2022-07-29T08:33:25;10.83;;;1.90;;
5831;SDS011;50943;51.448;7.646;2022-07-29T08:35:51;2.83;;;1.90;;
5831;SDS011;50943;51.448;7.646;2022-07-29T08:38:18;4.23;;;1.87;;
5831;SDS011;50943;51.448;7.646;2022-07-29T08:40:44;5.90;;;2.50;;
5831;SDS011;50943;51.448;7.646;2022-07-29T08:43:11;4.90;;;2.00;;
5831;SDS011;50943;51.448;7.646;2022-07-29T08:45:43;7.50;;;1.93;;
5831;SDS011;50943;51.448;7.646;2022-07-29T08:48:11;5.80;;;2.47;;
5831;SDS011;50943;51.448;7.646;2022-07-29T08:50:38;7.47;;;1.97;;
5831;SDS011;50943;51.448;7.646;2022-07-29T08:53:06;7.87;;;1.87;;
5831;SDS011;50943;51.448;7.646;2022-07-29T08:55:33;4.40;;;1.93;;
5831;SDS011;50943;51.448;7.646;2022-07-29T08:58:00;6.20;;;2.00;;
5831;SDS011;50943;51.448;7.646;2022-07-29T09:00:27;4.10;;;2.00;;
5831;SDS011;50943;51.448;7.646;2022-07-29T09:02:57;5.53;;;1.90;;
5831;SDS011;50943;51.448;7.646;2022-07-29T09:05:24;10.07;;;2.63;;
5831;SDS011;50943;51.448;7.646;2022-07-29T09:07:52;13.23;;;2.10;;
5831;SDS011;50943;51.448;7.646;2022-07-29T09:10:19;11.23;;;2.20;;
5831;SDS011;50943;51.448;7.646;2022-07-29T09:12:45;4.67;;;1.83;;
5831;SDS011;50943;51.448;7.646;2022-07-29T09:15:13;5.83;;;2.37;;
5831;SDS011;50943;51.448;7.646;2022-07-29T09:17:41;5.97;;;2.23;;
5831;SDS011;50943;51.448;7.646;2022-07-29T09:20:10;8.60;;;2.17;;
5831;SDS011;50943;51.448;7.646;2022-07-29T09:22:38;5.50;;;2.20;;
5831;SDS011;50943;51.448;7.646;2022-07-29T09:25:05;10.23;;;2.47;;
5831;SDS011;50943;51.448;7.646;2022-07-29T09:27:32;9.20;;;3.40;;
5831;SDS011;50943;51.448;7.646;2022-07-29T09:29:59;4.83;;;1.90;;
5831;SDS011;50943;51.448;7.646;2022-07-29T09:32:27;5.03;;;1.87;;
5831;SDS011;50943;51.448;7.646;2022-07-29T09:37:41;6.07;;;2.57;;
5831;SDS011;50943;51.448;7.646;2022-07-29T09:40:11;9.97;;;1.90;;
5831;SDS011;50943;51.448;7.646;2022-07-29T09:42:38;22.63;;;2.20;;
5831;SDS011;50943;51.448;7.646;2022-07-29T09:45:06;9.23;;;2.10;;
5831;SDS011;50943;51.448;7.646;2022-07-29T09:47:43;4.93;;;2.10;;
5831;SDS011;50943;51.448;7.646;2022-07-29T09:50:12;6.83;;;1.93;;
5831;SDS011;50943;51.448;7.646;2022-07-29T09:52:46;4.93;;;1.87;;
5831;SDS011;50943;51.448;7.646;2022-07-29T09:55:14;4.53;;;2.30;;
5831;SDS011;50943;51.448;7.646;2022-07-29T09:57:42;7.27;;;2.63;;
5831;SDS011;50943;51.448;7.646;2022-07-29T10:00:09;4.50;;;2.00;;
5831;SDS011;50943;51.448;7.646;2022-07-29T10:02:37;5.03;;;1.93;;
5831;SDS011;50943;51.448;7.646;2022-07-29T10:05:06;5.30;;;2.00;;
5831;SDS011;50943;51.448;7.646;2022-07-29T10:07:43;5.77;;;1.87;;
5831;SDS011;50943;51.448;7.646;2022-07-29T10:10:17;3.40;;;2.10;;
5831;SDS011;50943;51.448;7.646;2022-07-29T10:12:48;9.93;;;1.83;;
5831;SDS011;50943;51.448;7.646;2022-07-29T10:15:16;4.30;;;1.67;;
5831;SDS011;50943;51.448;7.646;2022-07-29T10:17:43;4.80;;;1.87;;
5831;SDS011;50943;51.448;7.646;2022-07-29T10:20:10;5.13;;;1.87;;
5831;SDS011;50943;51.448;7.646;2022-07-29T10:22:36;9.50;;;2.07;;
5831;SDS011;50943;51.448;7.646;2022-07-29T10:25:03;10.13;;;2.30;;
5831;SDS011;50943;51.448;7.646;2022-07-29T10:27:31;6.30;;;1.83;;
5831;SDS011;50943;51.448;7.646;2022-07-29T10:29:58;6.00;;;2.23;;
5831;SDS011;50943;51.448;7.646;2022-07-29T10:32:29;7.23;;;2.30;;
5831;SDS011;50943;51.448;7.646;2022-07-29T10:35:09;7.07;;;2.27;;
5831;SDS011;50943;51.448;7.646;2022-07-29T10:37:46;7.00;;;1.90;;
5831;SDS011;50943;51.448;7.646;2022-07-29T10:40:22;7.30;;;1.70;;
5831;SDS011;50943;51.448;7.646;2022-07-29T10:43:16;6.57;;;2.60;;
5831;SDS011;50943;51.448;7.646;2022-07-29T10:45:46;7.00;;;2.20;;
5831;SDS011;50943;51.448;7.646;2022-07-29T10:48:13;3.40;;;1.80;;
5831;SDS011;50943;51.448;7.646;2022-07-29T10:50:53;6.87;;;1.90;;
5831;SDS011;50943;51.448;7.646;2022-07-29T10:53:20;11.93;;;3.30;;
5831;SDS011;50943;51.448;7.646;2022-07-29T10:55:49;6.23;;;2.40;;
5831;SDS011;50943;51.448;7.646;2022-07-29T10:58:18;6.63;;;2.80;;
5831;SDS011;50943;51.448;7.646;2022-07-29T11:00:46;5.90;;;2.80;;
5831;SDS011;50943;51.448;7.646;2022-07-29T11:06:12;12.50;;;3.13;;
5831;SDS011;50943;51.448;7.646;2022-07-29T11:08:38;8.73;;;3.37;;
5831;SDS011;50943;51.448;7.646;2022-07-29T11:14:04;16.27;;;3.00;;
5831;SDS011;50943;51.448;7.646;2022-07-29T11:19:28;14.33;;;3.63;;
5831;SDS011;50943;51.448;7.646;2022-07-29T11:21:55;5.23;;;2.73;;
5831;SDS011;50943;51.448;7.646;2022-07-29T11:24:22;13.07;;;3.47;;
5831;SDS011;50943;51.448;7.646;2022-07-29T11:27:14;5.87;;;3.30;;
5831;SDS011;50943;51.448;7.646;2022-07-29T11:29:51;9.07;;;2.87;;
5831;SDS011;50943;51.448;7.646;2022-07-29T11:32:18;7.30;;;4.90;;
5831;SDS011;50943;51.448;7.646;2022-07-29T11:34:46;10.30;;;3.37;;
5831;SDS011;50943;51.448;7.646;2022-07-29T11:37:20;13.43;;;2.90;;
5831;SDS011;50943;51.448;7.646;2022-07-29T11:42:49;10.50;;;3.03;;
5831;SDS011;50943;51.448;7.646;2022-07-29T11:45:19;7.13;;;2.93;;
5831;SDS011;50943;51.448;7.646;2022-07-29T11:48:01;5.80;;;2.50;;
5831;SDS011;50943;51.448;7.646;2022-07-29T11:50:34;7.53;;;2.53;;
5831;SDS011;50943;51.448;7.646;2022-07-29T11:53:02;5.40;;;2.70;;
5831;SDS011;50943;51.448;7.646;2022-07-29T11:55:30;7.23;;;2.23;;
5831;SDS011;50943;51.448;7.646;2022-07-29T11:58:00;8.43;;;2.70;;
5831;SDS011;50943;51.448;7.646;2022-07-29T12:00:30;8.57;;;2.40;;
5831;SDS011;50943;51.448;7.646;2022-07-29T12:02:58;7.83;;;2.50;;
5831;SDS011;50943;51.448;7.646;2022-07-29T12:05:33;14.20;;;3.10;;
5831;SDS011;50943;51.448;7.646;2022-07-29T12:08:10;11.33;;;3.37;;
5831;SDS011;50943;51.448;7.646;2022-07-29T12:10:38;5.23;;;2.90;;
5831;SDS011;50943;51.448;7.646;2022-07-29T12:13:05;6.50;;;2.17;;
5831;SDS011;50943;51.448;7.646;2022-07-29T12:15:33;8.23;;;2.50;;
5831;SDS011;50943;51.448;7.646;2022-07-29T12:18:08;10.10;;;2.40;;
5831;SDS011;50943;51.448;7.646;2022-07-29T12:20:35;7.47;;;2.60;;
5831;SDS011;50943;51.448;7.646;2022-07-29T12:23:04;5.20;;;2.50;;
5831;SDS011;50943;51.448;7.646;2022-07-29T12:25:32;4.90;;;2.50;;
5831;SDS011;50943;51.448;7.646;2022-07-29T12:28:00;11.80;;;3.23;;
5831;SDS011;50943;51.448;7.646;2022-07-29T12:30:37;8.60;;;2.80;;
5831;SDS011;50943;51.448;7.646;2022-07-29T12:33:15;8.63;;;2.73;;
5831;SDS011;50943;51.448;7.646;2022-07-29T12:35:45;5.97;;;2.40;;
5831;SDS011;50943;51.448;7.646;2022-07-29T12:38:14;5.80;;;2.87;;
5831;SDS011;50943;51.448;7.646;2022-07-29T12:40:42;6.53;;;3.20;;
5831;SDS011;50943;51.448;7.646;2022-07-29T12:43:10;9.03;;;2.93;;
5831;SDS011;50943;51.448;7.646;2022-07-29T12:45:40;7.20;;;3.10;;
5831;SDS011;50943;51.448;7.646;2022-07-29T12:48:08;8.97;;;3.20;;
5831;SDS011;50943;51.448;7.646;2022-07-29T12:50:35;6.67;;;3.00;;
5831;SDS011;50943;51.448;7.646;2022-07-29T12:53:09;9.67;;;3.20;;
5831;SDS011;50943;51.448;7.646;2022-07-29T12:55:43;14.10;;;2.93;;
5831;SDS011;50943;51.448;7.646;2022-07-29T12:58:14;3.40;;;2.20;;
5831;SDS011;50943;51.448;7.646;2022-07-29T13:00:59;7.07;;;2.87;;
5831;SDS011;50943;51.448;7.646;2022-07-29T13:03:45;6.90;;;2.67;;
5831;SDS011;50943;51.448;7.646;2022-07-29T13:06:36;4.47;;;2.50;;
5831;SDS011;50943;51.448;7.646;2022-07-29T13:09:05;4.37;;;2.30;;
5831;SDS011;50943;51.448;7.646;2022-07-29T13:11:34;7.70;;;2.40;;
5831;SDS011;50943;51.448;7.646;2022-07-29T13:14:01;9.93;;;2.67;;
5831;SDS011;50943;51.448;7.646;2022-07-29T13:16:29;5.60;;;2.50;;
5831;SDS011;50943;51.448;7.646;2022-07-29T13:19:03;8.03;;;2.40;;
5831;SDS011;50943;51.448;7.646;2022-07-29T13:21:31;7.90;;;2.77;;
5831;SDS011;50943;51.448;7.646;2022-07-29T13:23:57;10.17;;;2.63;;
5831;SDS011;50943;51.448;7.646;2022-07-29T13:26:24;5.80;;;2.37;;
5831;SDS011;50943;51.448;7.646;2022-07-29T13:28:51;6.60;;;2.30;;
5831;SDS011;50943;51.448;7.646;2022-07-29T13:31:17;8.90;;;2.30;;
5831;SDS011;50943;51.448;7.646;2022-07-29T13:33:45;14.60;;;3.13;;
5831;SDS011;50943;51.448;7.646;2022-07-29T13:36:12;9.97;;;2.67;;
5831;SDS011;50943;51.448;7.646;2022-07-29T13:38:39;3.90;;;2.23;;
5831;SDS011;50943;51.448;7.646;2022-07-29T13:41:06;5.93;;;2.20;;
5831;SDS011;50943;51.448;7.646;2022-07-29T13:43:32;6.87;;;2.07;;
5831;SDS011;50943;51.448;7.646;2022-07-29T13:45:59;7.70;;;2.90;;
5831;SDS011;50943;51.448;7.646;2022-07-29T13:48:26;9.87;;;2.60;;
5831;SDS011;50943;51.448;7.646;2022-07-29T13:50:54;5.87;;;2.50;;
5831;SDS011;50943;51.448;7.646;2022-07-29T13:53:22;10.03;;;3.10;;
5831;SDS011;50943;51.448;7.646;2022-07-29T13:55:48;5.77;;;2.90;;
5831;SDS011;50943;51.448;7.646;2022-07-29T13:58:16;5.90;;;3.23;;
5831;SDS011;50943;51.448;7.646;2022-07-29T14:00:43;5.97;;;2.47;;
5831;SDS011;50943;51.448;7.646;2022-07-29T14:03:11;6.07;;;3.10;;
5831;SDS011;50943;51.448;7.646;2022-07-29T14:05:38;7.60;;;2.63;;
5831;SDS011;50943;51.448;7.646;2022-07-29T14:08:06;3.70;;;2.20;;
5831;SDS011;50943;51.448;7.646;2022-07-29T14:10:32;6.67;;;3.13;;
5831;SDS011;50943;51.448;7.646;2022-07-29T14:12:59;5.83;;;2.40;;
5831;SDS011;50943;51.448;7.646;2022-07-29T14:15:25;5.57;;;2.50;;
5831;SDS011;50943;51.448;7.646;2022-07-29T14:17:52;5.43;;;2.40;;
5831;SDS011;50943;51.448;7.646;2022-07-29T14:20:19;4.90;;;2.43;;
5831;SDS011;50943;51.448;7.646;2022-07-29T14:22:45;10.97;;;2.60;;
5831;SDS011;50943;51.448;7.646;2022-07-29T14:25:13;11.23;;;4.03;;
5831;SDS011;50943;51.448;7.646;2022-07-29T14:27:40;8.40;;;2.80;;
5831;SDS011;50943;51.448;7.646;2022-07-29T14:30:07;6.60;;;3.23;;
5831;SDS011;50943;51.448;7.646;2022-07-29T14:32:35;10.30;;;2.40;;
5831;SDS011;50943;51.448;7.646;2022-07-29T14:35:01;6.33;;;3.47;;
5831;SDS011;50943;51.448;7.646;2022-07-29T14:37:28;7.60;;;3.40;;
5831;SDS011;50943;51.448;7.646;2022-07-29T14:39:54;4.13;;;3.03;;
5831;SDS011;50943;51.448;7.646;2022-07-29T14:42:25;7.30;;;3.53;;
5831;SDS011;50943;51.448;7.646;2022-07-29T14:44:52;7.90;;;3.30;;
5831;SDS011;50943;51.448;7.646;2022-07-29T14:47:19;8.03;;;3.33;;
5831;SDS011;50943;51.448;7.646;2022-07-29T14:49:46;9.73;;;3.67;;
5831;SDS011;50943;51.448;7.646;2022-07-29T14:52:13;7.90;;;4.03;;
5831;SDS011;50943;51.448;7.646;2022-07-29T14:54:40;11.40;;;5.00;;
5831;SDS011;50943;51.448;7.646;2022-07-29T14:57:07;15.33;;;3.70;;
5831;SDS011;50943;51.448;7.646;2022-07-29T14:59:35;9.63;;;3.90;;
5831;SDS011;50943;51.448;7.646;2022-07-29T15:02:01;9.87;;;4.77;;
5831;SDS011;50943;51.448;7.646;2022-07-29T15:04:28;7.80;;;4.50;;
5831;SDS011;50943;51.448;7.646;2022-07-29T15:06:55;7.20;;;4.40;;
5831;SDS011;50943;51.448;7.646;2022-07-29T15:09:21;7.07;;;3.80;;
5831;SDS011;50943;51.448;7.646;2022-07-29T15:11:48;7.70;;;4.43;;
5831;SDS011;50943;51.448;7.646;2022-07-29T15:14:15;7.03;;;3.80;;
5831;SDS011;50943;51.448;7.646;2022-07-29T15:16:43;8.10;;;3.20;;
5831;SDS011;50943;51.448;7.646;2022-07-29T15:19:10;7.27;;;3.93;;
5831;SDS011;50943;51.448;7.646;2022-07-29T15:21:37;10.17;;;3.93;;
5831;SDS011;50943;51.448;7.646;2022-07-29T15:24:04;6.30;;;4.30;;
5831;SDS011;50943;51.448;7.646;2022-07-29T15:26:32;7.77;;;3.67;;